sensor_id;sensor_type;location;lat;lon;timestamp;P1;durP1;ratioP1;P2;durP2;ratioP2
64375;SDS011;50700;55.416;12.952;2023-07-29T00:01:22;9.48;;;6.40;;
64375;SDS011;50700;55.416;12.952;2023-07-29T00:03:48;8.40;;;5.65;;
64375;SDS011;50700;55.416;12.952;2023-07-29T00:06:13;8.65;;;6.05;;
64375;SDS011;50700;55.416;12.952;2023-07-29T00:08:38;7.50;;;5.43;;
64375;SDS011;50700;55.416;12.952;2023-07-29T00:11:04;7.50;;;5.88;;
64375;SDS011;50700;55.416;12.952;2023-07-29T00:13:29;9.15;;;5.50;;
64375;SDS011;50700;55.416;12.952;2023-07-29T00:15:54;8.60;;;6.03;;
64375;SDS011;50700;55.416;12.952;2023-07-29T00:18:21;8.73;;;5.65;;
64375;SDS011;50700;55.416;12.952;2023-07-29T00:20:46;8.05;;;5.03;;
64375;SDS011;50700;55.416;12.952;2023-07-29T00:23:11;8.13;;;5.43;;
64375;SDS011;50700;55.416;12.952;2023-07-29T00:25:37;7.80;;;5.50;;
64375;SDS011;50700;55.416;12.952;2023-07-29T00:28:02;7.43;;;5.50;;
64375;SDS011;50700;55.416;12.952;2023-07-29T00:30:27;8.00;;;5.40;;
64375;SDS011;50700;55.416;12.952;2023-07-29T00:32:53;11.50;;;5.75;;
64375;SDS011;50700;55.416;12.952;2023-07-29T00:35:18;8.95;;;5.70;;
64375;SDS011;50700;55.416;12.952;2023-07-29T00:37:43;7.20;;;5.80;;
64375;SDS011;50700;55.416;12.952;2023-07-29T00:42:55;6.95;;;5.78;;
64375;SDS011;50700;55.416;12.952;2023-07-29T00:45:20;8.25;;;5.28;;
64375;SDS011;50700;55.416;12.952;2023-07-29T00:47:46;8.45;;;5.97;;
64375;SDS011;50700;55.416;12.952;2023-07-29T00:50:11;7.57;;;5.65;;
64375;SDS011;50700;55.416;12.952;2023-07-29T00:52:37;6.53;;;4.78;;
64375;SDS011;50700;55.416;12.952;2023-07-29T00:55:04;8.02;;;6.30;;
64375;SDS011;50700;55.416;12.952;2023-07-29T00:57:29;11.50;;;5.95;;
64375;SDS011;50700;55.416;12.952;2023-07-29T00:59:55;10.82;;;6.50;;
64375;SDS011;50700;55.416;12.952;2023-07-29T01:02:21;10.32;;;5.95;;
64375;SDS011;50700;55.416;12.952;2023-07-29T01:04:51;9.23;;;6.25;;
64375;SDS011;50700;55.416;12.952;2023-07-29T01:12:37;9.90;;;6.60;;
64375;SDS011;50700;55.416;12.952;2023-07-29T01:18:06;9.43;;;6.28;;
64375;SDS011;50700;55.416;12.952;2023-07-29T01:20:34;6.93;;;4.97;;
64375;SDS011;50700;55.416;12.952;2023-07-29T01:23:02;9.55;;;6.15;;
64375;SDS011;50700;55.416;12.952;2023-07-29T01:25:27;7.40;;;5.70;;
64375;SDS011;50700;55.416;12.952;2023-07-29T01:27:53;8.75;;;6.35;;
64375;SDS011;50700;55.416;12.952;2023-07-29T01:30:22;8.02;;;5.70;;
64375;SDS011;50700;55.416;12.952;2023-07-29T01:32:52;7.25;;;5.10;;
64375;SDS011;50700;55.416;12.952;2023-07-29T01:35:31;8.65;;;5.00;;
64375;SDS011;50700;55.416;12.952;2023-07-29T01:38:09;9.98;;;5.32;;
64375;SDS011;50700;55.416;12.952;2023-07-29T01:40:37;8.00;;;5.45;;
64375;SDS011;50700;55.416;12.952;2023-07-29T01:43:03;8.77;;;5.53;;
64375;SDS011;50700;55.416;12.952;2023-07-29T01:45:28;8.02;;;5.50;;
64375;SDS011;50700;55.416;12.952;2023-07-29T01:47:56;9.05;;;5.50;;
64375;SDS011;50700;55.416;12.952;2023-07-29T01:50:22;7.15;;;5.15;;
64375;SDS011;50700;55.416;12.952;2023-07-29T01:52:47;9.27;;;5.35;;
64375;SDS011;50700;55.416;12.952;2023-07-29T01:55:12;7.25;;;5.57;;
64375;SDS011;50700;55.416;12.952;2023-07-29T01:57:38;7.60;;;5.35;;
64375;SDS011;50700;55.416;12.952;2023-07-29T02:00:03;8.70;;;5.75;;
64375;SDS011;50700;55.416;12.952;2023-07-29T02:02:29;8.50;;;6.22;;
64375;SDS011;50700;55.416;12.952;2023-07-29T02:04:54;7.97;;;5.82;;
64375;SDS011;50700;55.416;12.952;2023-07-29T02:07:21;8.60;;;5.32;;
64375;SDS011;50700;55.416;12.952;2023-07-29T02:09:46;7.90;;;5.10;;
64375;SDS011;50700;55.416;12.952;2023-07-29T02:12:12;7.03;;;4.90;;
64375;SDS011;50700;55.416;12.952;2023-07-29T02:14:37;7.22;;;5.28;;
64375;SDS011;50700;55.416;12.952;2023-07-29T02:17:03;7.07;;;5.00;;
64375;SDS011;50700;55.416;12.952;2023-07-29T02:19:28;8.70;;;5.60;;
64375;SDS011;50700;55.416;12.952;2023-07-29T02:21:53;7.93;;;5.20;;
64375;SDS011;50700;55.416;12.952;2023-07-29T02:24:18;7.07;;;4.75;;
64375;SDS011;50700;55.416;12.952;2023-07-29T02:26:44;7.07;;;5.13;;
64375;SDS011;50700;55.416;12.952;2023-07-29T02:29:09;8.43;;;5.80;;
64375;SDS011;50700;55.416;12.952;2023-07-29T02:31:35;8.90;;;6.07;;
64375;SDS011;50700;55.416;12.952;2023-07-29T02:34:02;8.60;;;5.68;;
64375;SDS011;50700;55.416;12.952;2023-07-29T02:36:28;7.47;;;5.40;;
64375;SDS011;50700;55.416;12.952;2023-07-29T02:38:53;9.90;;;5.82;;
64375;SDS011;50700;55.416;12.952;2023-07-29T02:41:19;7.88;;;5.35;;
64375;SDS011;50700;55.416;12.952;2023-07-29T02:43:47;8.43;;;6.30;;
64375;SDS011;50700;55.416;12.952;2023-07-29T02:46:13;11.07;;;6.40;;
64375;SDS011;50700;55.416;12.952;2023-07-29T02:48:38;10.55;;;6.18;;
64375;SDS011;50700;55.416;12.952;2023-07-29T02:51:04;11.77;;;6.53;;
64375;SDS011;50700;55.416;12.952;2023-07-29T02:53:29;9.38;;;6.53;;
64375;SDS011;50700;55.416;12.952;2023-07-29T02:55:55;9.05;;;6.40;;
64375;SDS011;50700;55.416;12.952;2023-07-29T02:58:20;9.75;;;6.28;;
64375;SDS011;50700;55.416;12.952;2023-07-29T03:00:45;8.85;;;5.68;;
64375;SDS011;50700;55.416;12.952;2023-07-29T03:03:13;11.43;;;5.75;;
64375;SDS011;50700;55.416;12.952;2023-07-29T03:05:39;8.73;;;5.60;;
64375;SDS011;50700;55.416;12.952;2023-07-29T03:08:04;10.63;;;5.80;;
64375;SDS011;50700;55.416;12.952;2023-07-29T03:10:29;7.03;;;5.47;;
64375;SDS011;50700;55.416;12.952;2023-07-29T03:12:55;9.63;;;5.80;;
64375;SDS011;50700;55.416;12.952;2023-07-29T03:15:23;9.63;;;5.50;;
64375;SDS011;50700;55.416;12.952;2023-07-29T03:17:50;6.70;;;4.85;;
64375;SDS011;50700;55.416;12.952;2023-07-29T03:20:15;7.97;;;5.00;;
64375;SDS011;50700;55.416;12.952;2023-07-29T03:22:43;8.27;;;5.32;;
64375;SDS011;50700;55.416;12.952;2023-07-29T03:25:09;6.72;;;4.82;;
64375;SDS011;50700;55.416;12.952;2023-07-29T03:27:34;6.72;;;4.78;;
64375;SDS011;50700;55.416;12.952;2023-07-29T03:30:02;8.85;;;5.00;;
64375;SDS011;50700;55.416;12.952;2023-07-29T03:32:27;6.00;;;5.13;;
64375;SDS011;50700;55.416;12.952;2023-07-29T03:34:53;7.55;;;5.22;;
64375;SDS011;50700;55.416;12.952;2023-07-29T03:37:19;7.50;;;5.32;;
64375;SDS011;50700;55.416;12.952;2023-07-29T03:39:44;7.15;;;4.70;;
64375;SDS011;50700;55.416;12.952;2023-07-29T03:42:09;8.73;;;5.97;;
64375;SDS011;50700;55.416;12.952;2023-07-29T03:44:35;7.18;;;5.57;;
64375;SDS011;50700;55.416;12.952;2023-07-29T03:47:00;10.38;;;5.30;;
64375;SDS011;50700;55.416;12.952;2023-07-29T03:49:26;9.25;;;6.07;;
64375;SDS011;50700;55.416;12.952;2023-07-29T03:51:51;7.82;;;5.88;;
64375;SDS011;50700;55.416;12.952;2023-07-29T03:54:16;8.63;;;5.75;;
64375;SDS011;50700;55.416;12.952;2023-07-29T03:56:42;8.07;;;6.15;;
64375;SDS011;50700;55.416;12.952;2023-07-29T03:59:07;8.77;;;6.35;;
64375;SDS011;50700;55.416;12.952;2023-07-29T04:01:32;11.65;;;6.22;;
64375;SDS011;50700;55.416;12.952;2023-07-29T04:03:58;8.40;;;5.70;;
64375;SDS011;50700;55.416;12.952;2023-07-29T04:06:24;7.38;;;5.78;;
64375;SDS011;50700;55.416;12.952;2023-07-29T04:08:50;9.23;;;5.75;;
64375;SDS011;50700;55.416;12.952;2023-07-29T04:11:15;8.15;;;5.50;;
64375;SDS011;50700;55.416;12.952;2023-07-29T04:13:40;6.72;;;5.72;;
64375;SDS011;50700;55.416;12.952;2023-07-29T04:16:06;5.60;;;4.55;;
64375;SDS011;50700;55.416;12.952;2023-07-29T04:18:31;6.90;;;5.07;;
64375;SDS011;50700;55.416;12.952;2023-07-29T04:20:57;7.10;;;5.03;;
64375;SDS011;50700;55.416;12.952;2023-07-29T04:23:22;6.32;;;4.90;;
64375;SDS011;50700;55.416;12.952;2023-07-29T04:25:47;8.70;;;5.30;;
64375;SDS011;50700;55.416;12.952;2023-07-29T04:28:13;6.25;;;5.47;;
64375;SDS011;50700;55.416;12.952;2023-07-29T04:30:38;5.97;;;4.53;;
64375;SDS011;50700;55.416;12.952;2023-07-29T04:33:04;6.80;;;5.25;;
64375;SDS011;50700;55.416;12.952;2023-07-29T04:35:29;7.35;;;5.53;;
64375;SDS011;50700;55.416;12.952;2023-07-29T04:37:54;7.28;;;5.38;;
64375;SDS011;50700;55.416;12.952;2023-07-29T04:40:20;8.30;;;5.40;;
64375;SDS011;50700;55.416;12.952;2023-07-29T04:42:45;6.95;;;5.63;;
64375;SDS011;50700;55.416;12.952;2023-07-29T04:45:11;10.07;;;5.45;;
64375;SDS011;50700;55.416;12.952;2023-07-29T04:47:36;7.05;;;5.60;;
64375;SDS011;50700;55.416;12.952;2023-07-29T04:50:01;5.68;;;4.63;;
64375;SDS011;50700;55.416;12.952;2023-07-29T04:52:27;6.68;;;4.97;;
64375;SDS011;50700;55.416;12.952;2023-07-29T04:54:52;8.98;;;6.00;;
64375;SDS011;50700;55.416;12.952;2023-07-29T04:57:18;9.00;;;5.00;;
64375;SDS011;50700;55.416;12.952;2023-07-29T04:59:43;6.88;;;4.97;;
64375;SDS011;50700;55.416;12.952;2023-07-29T05:02:08;8.70;;;5.03;;
64375;SDS011;50700;55.416;12.952;2023-07-29T05:04:34;6.47;;;4.70;;
64375;SDS011;50700;55.416;12.952;2023-07-29T05:06:59;5.60;;;4.60;;
64375;SDS011;50700;55.416;12.952;2023-07-29T05:09:24;7.05;;;4.10;;
64375;SDS011;50700;55.416;12.952;2023-07-29T05:11:50;8.50;;;4.35;;
64375;SDS011;50700;55.416;12.952;2023-07-29T05:14:16;7.03;;;4.00;;
64375;SDS011;50700;55.416;12.952;2023-07-29T05:16:42;6.07;;;4.15;;
64375;SDS011;50700;55.416;12.952;2023-07-29T05:19:08;6.85;;;4.40;;
64375;SDS011;50700;55.416;12.952;2023-07-29T05:21:33;5.00;;;3.55;;
64375;SDS011;50700;55.416;12.952;2023-07-29T05:23:59;6.85;;;4.50;;
64375;SDS011;50700;55.416;12.952;2023-07-29T05:26:24;4.30;;;3.63;;
64375;SDS011;50700;55.416;12.952;2023-07-29T05:28:49;5.38;;;3.63;;
64375;SDS011;50700;55.416;12.952;2023-07-29T05:31:15;5.47;;;3.67;;
64375;SDS011;50700;55.416;12.952;2023-07-29T05:33:40;4.38;;;3.20;;
64375;SDS011;50700;55.416;12.952;2023-07-29T05:36:06;4.32;;;3.70;;
64375;SDS011;50700;55.416;12.952;2023-07-29T05:38:31;5.43;;;4.20;;
64375;SDS011;50700;55.416;12.952;2023-07-29T05:40:56;7.18;;;3.40;;
64375;SDS011;50700;55.416;12.952;2023-07-29T05:43:23;6.65;;;3.55;;
64375;SDS011;50700;55.416;12.952;2023-07-29T05:45:49;8.10;;;3.70;;
64375;SDS011;50700;55.416;12.952;2023-07-29T05:48:14;4.57;;;3.30;;
64375;SDS011;50700;55.416;12.952;2023-07-29T05:50:39;5.00;;;3.47;;
64375;SDS011;50700;55.416;12.952;2023-07-29T05:53:05;5.93;;;3.60;;
64375;SDS011;50700;55.416;12.952;2023-07-29T05:55:30;6.65;;;4.07;;
64375;SDS011;50700;55.416;12.952;2023-07-29T05:57:55;4.85;;;3.53;;
64375;SDS011;50700;55.416;12.952;2023-07-29T06:00:22;4.75;;;3.95;;
64375;SDS011;50700;55.416;12.952;2023-07-29T06:02:48;5.07;;;3.85;;
64375;SDS011;50700;55.416;12.952;2023-07-29T06:05:13;5.13;;;3.35;;
64375;SDS011;50700;55.416;12.952;2023-07-29T06:07:38;7.38;;;3.75;;
64375;SDS011;50700;55.416;12.952;2023-07-29T06:10:09;7.18;;;3.88;;
64375;SDS011;50700;55.416;12.952;2023-07-29T06:12:37;6.28;;;3.53;;
64375;SDS011;50700;55.416;12.952;2023-07-29T06:15:02;4.10;;;3.53;;
64375;SDS011;50700;55.416;12.952;2023-07-29T06:17:27;5.13;;;4.10;;
64375;SDS011;50700;55.416;12.952;2023-07-29T06:19:53;5.63;;;4.03;;
64375;SDS011;50700;55.416;12.952;2023-07-29T06:22:18;6.30;;;3.75;;
64375;SDS011;50700;55.416;12.952;2023-07-29T06:24:43;8.15;;;4.40;;
64375;SDS011;50700;55.416;12.952;2023-07-29T06:27:09;4.50;;;3.72;;
64375;SDS011;50700;55.416;12.952;2023-07-29T06:29:34;5.75;;;3.78;;
64375;SDS011;50700;55.416;12.952;2023-07-29T06:32:00;7.57;;;3.80;;
64375;SDS011;50700;55.416;12.952;2023-07-29T06:34:25;4.05;;;3.33;;
64375;SDS011;50700;55.416;12.952;2023-07-29T06:36:51;6.40;;;3.97;;
64375;SDS011;50700;55.416;12.952;2023-07-29T06:39:16;5.93;;;3.72;;
64375;SDS011;50700;55.416;12.952;2023-07-29T06:41:41;5.55;;;3.95;;
64375;SDS011;50700;55.416;12.952;2023-07-29T06:44:07;8.57;;;3.75;;
64375;SDS011;50700;55.416;12.952;2023-07-29T06:46:32;7.30;;;3.88;;
64375;SDS011;50700;55.416;12.952;2023-07-29T06:48:57;7.18;;;3.78;;
64375;SDS011;50700;55.416;12.952;2023-07-29T06:51:23;5.82;;;4.03;;
64375;SDS011;50700;55.416;12.952;2023-07-29T06:53:48;6.05;;;3.90;;
64375;SDS011;50700;55.416;12.952;2023-07-29T06:56:14;4.50;;;4.03;;
64375;SDS011;50700;55.416;12.952;2023-07-29T06:58:39;4.65;;;3.45;;
64375;SDS011;50700;55.416;12.952;2023-07-29T07:01:04;4.30;;;3.60;;
64375;SDS011;50700;55.416;12.952;2023-07-29T07:03:30;4.07;;;3.45;;
64375;SDS011;50700;55.416;12.952;2023-07-29T07:05:55;4.85;;;4.05;;
64375;SDS011;50700;55.416;12.952;2023-07-29T07:08:21;3.88;;;3.20;;
64375;SDS011;50700;55.416;12.952;2023-07-29T07:10:46;3.92;;;3.47;;
64375;SDS011;50700;55.416;12.952;2023-07-29T07:13:12;4.60;;;3.05;;
64375;SDS011;50700;55.416;12.952;2023-07-29T07:15:37;3.60;;;3.13;;
64375;SDS011;50700;55.416;12.952;2023-07-29T07:18:02;4.70;;;3.40;;
64375;SDS011;50700;55.416;12.952;2023-07-29T07:20:28;3.80;;;3.40;;
64375;SDS011;50700;55.416;12.952;2023-07-29T07:22:53;4.95;;;3.33;;
64375;SDS011;50700;55.416;12.952;2023-07-29T07:25:19;3.40;;;3.10;;
64375;SDS011;50700;55.416;12.952;2023-07-29T07:27:44;5.30;;;3.08;;
64375;SDS011;50700;55.416;12.952;2023-07-29T07:30:10;3.92;;;2.88;;
64375;SDS011;50700;55.416;12.952;2023-07-29T07:32:35;5.07;;;3.33;;
64375;SDS011;50700;55.416;12.952;2023-07-29T07:35:01;4.25;;;3.00;;
64375;SDS011;50700;55.416;12.952;2023-07-29T07:37:26;3.33;;;3.03;;
64375;SDS011;50700;55.416;12.952;2023-07-29T07:39:52;3.78;;;3.03;;
64375;SDS011;50700;55.416;12.952;2023-07-29T07:42:17;5.00;;;3.20;;
64375;SDS011;50700;55.416;12.952;2023-07-29T07:44:43;3.50;;;2.88;;
64375;SDS011;50700;55.416;12.952;2023-07-29T07:47:08;4.85;;;3.22;;
64375;SDS011;50700;55.416;12.952;2023-07-29T07:49:33;4.38;;;2.70;;
64375;SDS011;50700;55.416;12.952;2023-07-29T07:51:59;3.20;;;2.55;;
64375;SDS011;50700;55.416;12.952;2023-07-29T07:54:24;3.28;;;2.78;;
64375;SDS011;50700;55.416;12.952;2023-07-29T07:56:50;3.25;;;2.95;;
64375;SDS011;50700;55.416;12.952;2023-07-29T07:59:15;3.15;;;2.85;;
64375;SDS011;50700;55.416;12.952;2023-07-29T08:01:41;4.03;;;3.20;;
64375;SDS011;50700;55.416;12.952;2023-07-29T08:04:06;3.78;;;3.17;;
64375;SDS011;50700;55.416;12.952;2023-07-29T08:06:31;3.47;;;2.95;;
64375;SDS011;50700;55.416;12.952;2023-07-29T08:08:57;4.40;;;3.08;;
64375;SDS011;50700;55.416;12.952;2023-07-29T08:11:23;5.75;;;3.03;;
64375;SDS011;50700;55.416;12.952;2023-07-29T08:13:48;5.82;;;2.92;;
64375;SDS011;50700;55.416;12.952;2023-07-29T08:16:13;12.65;;;4.03;;
64375;SDS011;50700;55.416;12.952;2023-07-29T08:18:39;3.85;;;3.13;;
64375;SDS011;50700;55.416;12.952;2023-07-29T08:21:04;5.65;;;3.40;;
64375;SDS011;50700;55.416;12.952;2023-07-29T08:23:30;4.80;;;3.30;;
64375;SDS011;50700;55.416;12.952;2023-07-29T08:25:57;3.38;;;2.67;;
64375;SDS011;50700;55.416;12.952;2023-07-29T08:28:32;4.13;;;2.72;;
64375;SDS011;50700;55.416;12.952;2023-07-29T08:30:58;5.28;;;3.45;;
64375;SDS011;50700;55.416;12.952;2023-07-29T08:33:24;4.47;;;3.00;;
64375;SDS011;50700;55.416;12.952;2023-07-29T08:35:50;4.55;;;3.00;;
64375;SDS011;50700;55.416;12.952;2023-07-29T08:38:15;6.38;;;3.10;;
64375;SDS011;50700;55.416;12.952;2023-07-29T08:43:29;4.43;;;2.97;;
64375;SDS011;50700;55.416;12.952;2023-07-29T08:45:58;3.85;;;3.05;;
64375;SDS011;50700;55.416;12.952;2023-07-29T08:48:28;6.43;;;3.53;;
64375;SDS011;50700;55.416;12.952;2023-07-29T08:50:54;5.18;;;2.97;;
64375;SDS011;50700;55.416;12.952;2023-07-29T08:53:20;5.15;;;3.70;;
64375;SDS011;50700;55.416;12.952;2023-07-29T08:55:46;4.47;;;2.75;;
64375;SDS011;50700;55.416;12.952;2023-07-29T08:58:12;4.18;;;3.17;;
64375;SDS011;50700;55.416;12.952;2023-07-29T09:00:37;3.75;;;3.03;;
64375;SDS011;50700;55.416;12.952;2023-07-29T09:03:03;3.67;;;2.80;;
64375;SDS011;50700;55.416;12.952;2023-07-29T09:05:32;3.75;;;2.80;;
64375;SDS011;50700;55.416;12.952;2023-07-29T09:07:58;4.25;;;3.30;;
64375;SDS011;50700;55.416;12.952;2023-07-29T09:10:24;3.80;;;2.90;;
64375;SDS011;50700;55.416;12.952;2023-07-29T09:12:51;4.95;;;2.85;;
64375;SDS011;50700;55.416;12.952;2023-07-29T09:15:32;4.68;;;2.70;;
64375;SDS011;50700;55.416;12.952;2023-07-29T09:17:58;4.07;;;2.92;;
64375;SDS011;50700;55.416;12.952;2023-07-29T09:20:24;4.60;;;2.80;;
64375;SDS011;50700;55.416;12.952;2023-07-29T09:22:50;4.10;;;2.90;;
64375;SDS011;50700;55.416;12.952;2023-07-29T09:25:15;3.60;;;3.20;;
64375;SDS011;50700;55.416;12.952;2023-07-29T09:27:42;3.60;;;3.00;;
64375;SDS011;50700;55.416;12.952;2023-07-29T09:30:14;4.25;;;3.10;;
64375;SDS011;50700;55.416;12.952;2023-07-29T09:32:40;5.00;;;2.65;;
64375;SDS011;50700;55.416;12.952;2023-07-29T09:35:09;4.00;;;2.53;;
64375;SDS011;50700;55.416;12.952;2023-07-29T09:37:38;4.72;;;2.97;;
64375;SDS011;50700;55.416;12.952;2023-07-29T09:40:04;3.92;;;2.60;;
64375;SDS011;50700;55.416;12.952;2023-07-29T09:42:29;3.45;;;2.88;;
64375;SDS011;50700;55.416;12.952;2023-07-29T09:44:55;4.07;;;2.83;;
64375;SDS011;50700;55.416;12.952;2023-07-29T09:47:21;3.60;;;3.00;;
64375;SDS011;50700;55.416;12.952;2023-07-29T09:49:47;3.58;;;2.95;;
64375;SDS011;50700;55.416;12.952;2023-07-29T09:52:13;2.75;;;2.47;;
64375;SDS011;50700;55.416;12.952;2023-07-29T09:54:39;4.18;;;2.50;;
64375;SDS011;50700;55.416;12.952;2023-07-29T09:57:06;3.55;;;2.78;;
64375;SDS011;50700;55.416;12.952;2023-07-29T09:59:35;3.00;;;2.65;;
64375;SDS011;50700;55.416;12.952;2023-07-29T10:02:00;5.88;;;2.70;;
64375;SDS011;50700;55.416;12.952;2023-07-29T10:04:26;3.55;;;2.92;;
64375;SDS011;50700;55.416;12.952;2023-07-29T10:06:52;4.43;;;2.80;;
64375;SDS011;50700;55.416;12.952;2023-07-29T10:09:18;4.82;;;3.30;;
64375;SDS011;50700;55.416;12.952;2023-07-29T10:11:43;4.13;;;2.83;;
64375;SDS011;50700;55.416;12.952;2023-07-29T10:14:09;5.80;;;2.75;;
64375;SDS011;50700;55.416;12.952;2023-07-29T10:16:39;3.78;;;2.88;;
64375;SDS011;50700;55.416;12.952;2023-07-29T10:19:04;3.00;;;2.42;;
64375;SDS011;50700;55.416;12.952;2023-07-29T10:21:32;3.78;;;3.08;;
64375;SDS011;50700;55.416;12.952;2023-07-29T10:23:58;5.30;;;2.83;;
64375;SDS011;50700;55.416;12.952;2023-07-29T10:26:24;3.58;;;3.05;;
64375;SDS011;50700;55.416;12.952;2023-07-29T10:28:52;3.25;;;2.72;;
64375;SDS011;50700;55.416;12.952;2023-07-29T10:31:18;4.55;;;2.90;;
64375;SDS011;50700;55.416;12.952;2023-07-29T10:33:44;3.55;;;2.97;;
64375;SDS011;50700;55.416;12.952;2023-07-29T10:36:09;4.78;;;2.95;;
64375;SDS011;50700;55.416;12.952;2023-07-29T10:38:35;4.63;;;2.95;;
64375;SDS011;50700;55.416;12.952;2023-07-29T10:41:00;4.25;;;3.20;;
64375;SDS011;50700;55.416;12.952;2023-07-29T10:43:27;4.25;;;3.10;;
64375;SDS011;50700;55.416;12.952;2023-07-29T10:45:53;4.70;;;3.25;;
64375;SDS011;50700;55.416;12.952;2023-07-29T10:53:46;4.03;;;2.63;;
64375;SDS011;50700;55.416;12.952;2023-07-29T10:56:12;5.18;;;3.60;;
64375;SDS011;50700;55.416;12.952;2023-07-29T10:58:37;3.40;;;2.92;;
64375;SDS011;50700;55.416;12.952;2023-07-29T11:01:07;4.03;;;3.00;;
64375;SDS011;50700;55.416;12.952;2023-07-29T11:03:37;4.20;;;3.42;;
64375;SDS011;50700;55.416;12.952;2023-07-29T11:06:04;3.90;;;2.88;;
64375;SDS011;50700;55.416;12.952;2023-07-29T11:08:30;3.83;;;3.25;;
64375;SDS011;50700;55.416;12.952;2023-07-29T11:11:00;3.88;;;3.22;;
64375;SDS011;50700;55.416;12.952;2023-07-29T11:13:26;3.40;;;2.58;;
64375;SDS011;50700;55.416;12.952;2023-07-29T11:15:53;3.08;;;2.65;;
64375;SDS011;50700;55.416;12.952;2023-07-29T11:18:19;3.53;;;2.90;;
64375;SDS011;50700;55.416;12.952;2023-07-29T11:20:45;3.50;;;2.38;;
64375;SDS011;50700;55.416;12.952;2023-07-29T11:23:11;6.30;;;2.80;;
64375;SDS011;50700;55.416;12.952;2023-07-29T11:25:36;4.38;;;3.30;;
64375;SDS011;50700;55.416;12.952;2023-07-29T11:28:01;4.72;;;3.28;;
64375;SDS011;50700;55.416;12.952;2023-07-29T11:30:27;6.55;;;3.05;;
64375;SDS011;50700;55.416;12.952;2023-07-29T11:32:54;3.90;;;3.15;;
64375;SDS011;50700;55.416;12.952;2023-07-29T11:35:20;3.95;;;3.03;;
64375;SDS011;50700;55.416;12.952;2023-07-29T11:37:47;4.60;;;3.15;;
64375;SDS011;50700;55.416;12.952;2023-07-29T11:40:20;3.25;;;2.67;;
64375;SDS011;50700;55.416;12.952;2023-07-29T11:42:47;3.33;;;2.80;;
64375;SDS011;50700;55.416;12.952;2023-07-29T11:45:13;3.72;;;3.28;;
64375;SDS011;50700;55.416;12.952;2023-07-29T11:47:38;4.53;;;3.42;;
64375;SDS011;50700;55.416;12.952;2023-07-29T11:50:04;4.43;;;3.00;;
64375;SDS011;50700;55.416;12.952;2023-07-29T11:52:31;4.70;;;3.33;;
64375;SDS011;50700;55.416;12.952;2023-07-29T11:54:57;5.28;;;3.35;;
64375;SDS011;50700;55.416;12.952;2023-07-29T11:57:22;4.05;;;3.45;;
64375;SDS011;50700;55.416;12.952;2023-07-29T11:59:48;4.82;;;3.53;;
64375;SDS011;50700;55.416;12.952;2023-07-29T12:02:15;4.28;;;3.35;;
64375;SDS011;50700;55.416;12.952;2023-07-29T12:04:40;5.15;;;3.80;;
64375;SDS011;50700;55.416;12.952;2023-07-29T12:07:06;4.25;;;3.33;;
64375;SDS011;50700;55.416;12.952;2023-07-29T12:09:33;3.60;;;2.95;;
64375;SDS011;50700;55.416;12.952;2023-07-29T12:11:58;5.03;;;3.28;;
64375;SDS011;50700;55.416;12.952;2023-07-29T12:14:31;4.90;;;3.05;;
64375;SDS011;50700;55.416;12.952;2023-07-29T12:16:56;4.40;;;3.42;;
64375;SDS011;50700;55.416;12.952;2023-07-29T12:19:30;4.82;;;3.35;;
64375;SDS011;50700;55.416;12.952;2023-07-29T12:21:56;7.88;;;3.55;;
64375;SDS011;50700;55.416;12.952;2023-07-29T12:24:22;5.22;;;4.00;;
64375;SDS011;50700;55.416;12.952;2023-07-29T12:26:47;5.43;;;3.67;;
64375;SDS011;50700;55.416;12.952;2023-07-29T12:31:38;4.43;;;3.28;;
64375;SDS011;50700;55.416;12.952;2023-07-29T12:34:03;4.75;;;3.30;;
64375;SDS011;50700;55.416;12.952;2023-07-29T12:36:42;6.07;;;4.07;;
64375;SDS011;50700;55.416;12.952;2023-07-29T12:39:15;5.85;;;3.90;;
64375;SDS011;50700;55.416;12.952;2023-07-29T12:41:40;6.03;;;4.00;;
64375;SDS011;50700;55.416;12.952;2023-07-29T12:44:06;5.88;;;4.18;;
64375;SDS011;50700;55.416;12.952;2023-07-29T12:46:31;6.13;;;4.85;;
64375;SDS011;50700;55.416;12.952;2023-07-29T12:48:56;8.10;;;4.55;;
64375;SDS011;50700;55.416;12.952;2023-07-29T12:51:22;7.32;;;5.15;;
64375;SDS011;50700;55.416;12.952;2023-07-29T12:53:47;8.10;;;5.20;;
64375;SDS011;50700;55.416;12.952;2023-07-29T12:56:13;6.82;;;4.30;;
64375;SDS011;50700;55.416;12.952;2023-07-29T12:58:38;6.35;;;4.40;;
64375;SDS011;50700;55.416;12.952;2023-07-29T13:01:03;6.25;;;4.22;;
64375;SDS011;50700;55.416;12.952;2023-07-29T13:03:29;6.72;;;3.90;;
64375;SDS011;50700;55.416;12.952;2023-07-29T13:05:54;5.40;;;3.60;;
64375;SDS011;50700;55.416;12.952;2023-07-29T13:08:20;5.22;;;3.67;;
64375;SDS011;50700;55.416;12.952;2023-07-29T13:10:45;3.80;;;3.35;;
64375;SDS011;50700;55.416;12.952;2023-07-29T13:13:11;3.20;;;2.67;;
64375;SDS011;50700;55.416;12.952;2023-07-29T13:15:36;3.08;;;2.55;;
64375;SDS011;50700;55.416;12.952;2023-07-29T13:18:02;4.80;;;2.20;;
64375;SDS011;50700;55.416;12.952;2023-07-29T13:20:27;2.47;;;1.90;;
64375;SDS011;50700;55.416;12.952;2023-07-29T13:22:52;4.97;;;2.38;;
64375;SDS011;50700;55.416;12.952;2023-07-29T13:25:18;2.63;;;2.00;;
64375;SDS011;50700;55.416;12.952;2023-07-29T13:27:43;3.25;;;2.17;;
64375;SDS011;50700;55.416;12.952;2023-07-29T13:30:09;2.85;;;2.00;;
64375;SDS011;50700;55.416;12.952;2023-07-29T13:32:34;3.58;;;2.28;;
64375;SDS011;50700;55.416;12.952;2023-07-29T13:35:00;2.65;;;2.33;;
64375;SDS011;50700;55.416;12.952;2023-07-29T13:37:25;3.95;;;2.20;;
64375;SDS011;50700;55.416;12.952;2023-07-29T13:39:50;3.70;;;2.35;;
64375;SDS011;50700;55.416;12.952;2023-07-29T13:42:16;4.45;;;2.90;;
64375;SDS011;50700;55.416;12.952;2023-07-29T13:44:41;3.90;;;3.20;;
64375;SDS011;50700;55.416;12.952;2023-07-29T13:47:06;6.55;;;3.00;;
64375;SDS011;50700;55.416;12.952;2023-07-29T13:49:32;3.53;;;2.55;;
64375;SDS011;50700;55.416;12.952;2023-07-29T13:51:57;6.03;;;3.38;;
64375;SDS011;50700;55.416;12.952;2023-07-29T13:54:23;3.65;;;3.00;;
64375;SDS011;50700;55.416;12.952;2023-07-29T13:56:48;4.47;;;3.17;;
64375;SDS011;50700;55.416;12.952;2023-07-29T13:59:13;4.55;;;3.03;;
64375;SDS011;50700;55.416;12.952;2023-07-29T14:01:39;3.85;;;2.63;;
64375;SDS011;50700;55.416;12.952;2023-07-29T14:04:04;4.05;;;3.03;;
64375;SDS011;50700;55.416;12.952;2023-07-29T14:06:29;3.03;;;2.72;;
64375;SDS011;50700;55.416;12.952;2023-07-29T14:08:55;5.63;;;3.80;;
64375;SDS011;50700;55.416;12.952;2023-07-29T14:11:20;5.10;;;3.15;;
64375;SDS011;50700;55.416;12.952;2023-07-29T14:13:46;3.47;;;2.97;;
64375;SDS011;50700;55.416;12.952;2023-07-29T14:16:11;6.20;;;3.70;;
64375;SDS011;50700;55.416;12.952;2023-07-29T14:18:36;5.45;;;3.20;;
64375;SDS011;50700;55.416;12.952;2023-07-29T14:21:02;4.85;;;2.75;;
64375;SDS011;50700;55.416;12.952;2023-07-29T14:23:27;3.70;;;2.97;;
64375;SDS011;50700;55.416;12.952;2023-07-29T14:25:53;8.10;;;2.90;;
64375;SDS011;50700;55.416;12.952;2023-07-29T14:28:18;5.00;;;3.03;;
64375;SDS011;50700;55.416;12.952;2023-07-29T14:30:44;6.28;;;3.72;;
64375;SDS011;50700;55.416;12.952;2023-07-29T14:33:09;7.65;;;3.38;;
64375;SDS011;50700;55.416;12.952;2023-07-29T14:35:35;5.50;;;3.42;;
64375;SDS011;50700;55.416;12.952;2023-07-29T14:38:00;4.55;;;3.42;;
64375;SDS011;50700;55.416;12.952;2023-07-29T14:40:25;3.78;;;2.97;;
64375;SDS011;50700;55.416;12.952;2023-07-29T14:42:52;4.97;;;3.30;;
64375;SDS011;50700;55.416;12.952;2023-07-29T14:45:17;3.92;;;3.33;;
64375;SDS011;50700;55.416;12.952;2023-07-29T14:47:42;4.70;;;2.83;;